createdAt,value
2023-04-04T00:03:33.890Z,5.69
2023-04-04T00:07:40.941Z,5.65
2023-04-04T00:11:51.494Z,5.66
2023-04-04T00:16:27.700Z,5.57
2023-04-04T00:20:31.261Z,5.61
2023-04-04T00:24:36.133Z,5.61
2023-04-04T00:28:44.958Z,5.57
2023-04-04T00:32:48.106Z,5.69
2023-04-04T00:36:50.772Z,5.63
2023-04-04T00:40:55.248Z,5.55
2023-04-04T00:44:57.799Z,5.53
2023-04-04T00:49:03.173Z,5.44
2023-04-04T00:53:09.287Z,5.30
2023-04-04T00:57:13.717Z,5.10
2023-04-04T01:01:17.154Z,5.22
2023-04-04T01:05:31.165Z,5.21
2023-04-04T01:09:47.180Z,5.10
2023-04-04T01:13:56.098Z,4.99
2023-04-04T01:18:06.066Z,5.08
2023-04-04T01:22:15.101Z,5.06
2023-04-04T01:26:22.471Z,4.95
2023-04-04T01:30:36.521Z,4.99
2023-04-04T01:35:22.373Z,4.99
2023-04-04T01:39:41.239Z,4.87
2023-04-04T01:43:49.313Z,4.91
2023-04-04T01:47:53.838Z,4.80
2023-04-04T01:52:01.111Z,4.82
2023-04-04T01:56:06.423Z,4.70
2023-04-04T02:00:11.502Z,4.76
2023-04-04T02:04:21.945Z,4.75
2023-04-04T02:08:36.506Z,4.76
2023-04-04T02:12:42.629Z,4.75
2023-04-04T02:16:44.953Z,4.66
2023-04-04T02:20:47.675Z,4.73
2023-04-04T02:24:56.892Z,4.69
2023-04-04T02:28:59.683Z,4.65
2023-04-04T02:33:02.584Z,4.63
2023-04-04T02:37:05.318Z,4.54
2023-04-04T02:41:08.218Z,4.56
2023-04-04T02:45:15.929Z,4.61
2023-04-04T02:49:26.354Z,4.56
2023-04-04T02:53:29.736Z,4.61
2023-04-04T02:57:43.203Z,4.51
2023-04-04T03:01:53.544Z,4.60
2023-04-04T03:05:59.500Z,4.58
2023-04-04T03:10:08.760Z,4.69
2023-04-04T03:14:11.930Z,4.69
2023-04-04T03:18:18.229Z,4.61
2023-04-04T03:22:24.615Z,4.62
2023-04-04T03:26:33.977Z,4.56
2023-04-04T03:30:41.344Z,4.51
2023-04-04T03:34:44.957Z,4.61
2023-04-04T03:38:50.562Z,4.58
2023-04-04T03:42:55.047Z,4.55
2023-04-04T03:47:06.204Z,4.52
2023-04-04T03:51:13.596Z,4.49
2023-04-04T03:55:17.574Z,4.48
2023-04-04T03:59:21.676Z,4.37
2023-04-04T04:03:35.043Z,4.46
2023-04-04T04:07:38.957Z,4.42
2023-04-04T04:11:42.880Z,4.37
2023-04-04T04:15:54.134Z,4.34
2023-04-04T04:19:58.640Z,4.30
2023-04-04T04:24:05.769Z,4.35
2023-04-04T04:28:18.553Z,4.36
2023-04-04T04:32:24.015Z,4.29
2023-04-04T04:36:31.141Z,4.52
2023-04-04T04:41:07.090Z,4.46
2023-04-04T04:45:17.063Z,4.29
2023-04-04T04:49:25.434Z,4.42
2023-04-04T04:53:28.563Z,4.38
2023-04-04T04:57:36.672Z,4.39
2023-04-04T05:01:51.962Z,4.39
2023-04-04T05:05:57.520Z,4.35
2023-04-04T05:10:02.984Z,4.38
2023-04-04T05:18:53.177Z,4.49
2023-04-04T05:22:57.101Z,4.61
2023-04-04T05:27:12.913Z,4.77
2023-04-04T05:31:23.170Z,4.80
2023-04-04T05:35:29.530Z,4.86
2023-04-04T05:39:37.956Z,4.94
2023-04-04T05:43:44.774Z,5.00
2023-04-04T05:47:56.556Z,5.02
2023-04-04T05:52:01.977Z,4.98
2023-04-04T05:56:07.517Z,5.08
2023-04-04T06:00:14.996Z,5.01
2023-04-04T06:04:18.255Z,4.99
2023-04-04T06:08:22.255Z,5.10
2023-04-04T06:12:30.515Z,5.18
2023-04-04T06:16:34.633Z,5.18
2023-04-04T06:20:37.056Z,5.21
2023-04-04T06:24:39.526Z,5.35
2023-04-04T06:28:55.103Z,5.54
2023-04-04T06:33:05.607Z,5.74
2023-04-04T06:37:17.759Z,5.89
2023-04-04T06:41:32.298Z,5.92
2023-04-04T06:45:36.036Z,6.06
2023-04-04T06:49:38.819Z,6.03
2023-04-04T06:53:43.281Z,5.92
2023-04-04T06:57:49.667Z,5.98
2023-04-04T07:01:58.426Z,5.70
2023-04-04T07:06:07.472Z,5.62
2023-04-04T07:10:11.222Z,5.90
2023-04-04T07:14:18.192Z,6.21
2023-04-04T07:18:23.532Z,6.44
2023-04-04T07:22:25.999Z,6.29
2023-04-04T07:26:29.227Z,6.65
2023-04-04T07:30:33.435Z,6.96
2023-04-04T07:34:38.290Z,6.53
2023-04-04T07:38:43.142Z,6.49
2023-04-04T07:42:51.569Z,6.40
2023-04-04T07:47:08.478Z,6.29
2023-04-04T07:51:14.402Z,6.65
2023-04-04T07:55:17.149Z,6.80
2023-04-04T07:59:21.627Z,6.61
2023-04-04T08:03:28.557Z,6.53
2023-04-04T08:07:32.022Z,6.22
2023-04-04T08:11:36.997Z,6.47
2023-04-04T08:15:42.266Z,6.59
2023-04-04T08:19:47.007Z,7.01
2023-04-04T08:23:59.057Z,7.18
2023-04-04T08:28:07.186Z,7.04
2023-04-04T08:32:09.971Z,6.74
2023-04-04T08:36:14.885Z,6.48
2023-04-04T08:40:18.754Z,6.84
2023-04-04T08:44:27.807Z,6.58
2023-04-04T08:48:31.686Z,6.61
2023-04-04T08:52:42.968Z,6.52
2023-04-04T08:56:48.121Z,6.79
2023-04-04T09:00:56.225Z,7.33
2023-04-04T09:05:06.657Z,7.22
2023-04-04T09:09:15.263Z,7.55
2023-04-04T09:13:24.163Z,7.53
2023-04-04T09:17:28.969Z,7.19
2023-04-04T09:21:36.441Z,7.07
2023-04-04T09:30:05.341Z,7.05
2023-04-04T09:34:19.127Z,7.19
2023-04-04T09:38:29.191Z,6.92
2023-04-04T09:42:33.344Z,6.93
2023-04-04T09:46:37.839Z,6.67
2023-04-04T09:50:48.314Z,6.58
2023-04-04T09:55:01.421Z,6.80
2023-04-04T09:59:08.422Z,6.65
2023-04-04T10:03:13.637Z,7.00
2023-04-04T10:07:17.378Z,7.19
2023-04-04T10:11:32.688Z,7.65
2023-04-04T10:15:40.110Z,8.14
2023-04-04T10:19:56.698Z,7.44
2023-04-04T10:24:03.762Z,7.84
2023-04-04T10:28:06.182Z,7.83
2023-04-04T10:32:23.540Z,7.46
2023-04-04T10:36:33.074Z,7.62
2023-04-04T10:40:40.235Z,7.39
2023-04-04T10:44:48.276Z,7.59
2023-04-04T10:48:55.340Z,7.62
2023-04-04T10:53:01.607Z,7.53
2023-04-04T10:57:06.480Z,7.79
2023-04-04T11:01:14.189Z,7.96
2023-04-04T11:05:27.271Z,8.05
2023-04-04T11:10:17.405Z,7.41
2023-04-04T11:14:36.757Z,7.68
2023-04-04T11:18:46.709Z,8.24
2023-04-04T11:23:04.405Z,8.23
2023-04-04T11:27:08.457Z,8.38
2023-04-04T11:31:23.978Z,7.72
2023-04-04T11:35:29.589Z,7.69
2023-04-04T11:39:34.948Z,7.89
2023-04-04T11:43:45.870Z,7.77
2023-04-04T11:47:49.729Z,7.86
2023-04-04T11:51:54.528Z,7.87
2023-04-04T11:56:03.310Z,7.68
2023-04-04T12:00:09.348Z,7.65
2023-04-04T12:04:18.639Z,8.61
2023-04-04T12:08:25.496Z,9.35
2023-04-04T12:12:29.187Z,8.29
2023-04-04T12:16:36.097Z,8.01
2023-04-04T12:20:47.953Z,8.22
2023-04-04T12:24:50.488Z,8.71
2023-04-04T12:29:00.130Z,8.59
2023-04-04T12:33:05.397Z,8.73
2023-04-04T12:37:18.804Z,8.59
2023-04-04T12:41:23.879Z,8.47
2023-04-04T12:45:28.206Z,8.48
2023-04-04T12:49:39.575Z,8.94
2023-04-04T12:53:57.170Z,9.02
2023-04-04T12:58:02.237Z,8.06
2023-04-04T13:02:12.802Z,8.81
2023-04-04T13:06:20.170Z,8.63
2023-04-04T13:10:35.466Z,8.87
2023-04-04T13:14:58.240Z,9.15
2023-04-04T13:19:05.609Z,8.92
2023-04-04T13:23:08.495Z,9.32
2023-04-04T13:27:12.150Z,9.27
2023-04-04T13:31:16.438Z,9.83
2023-04-04T13:35:19.556Z,9.82
2023-04-04T13:39:25.362Z,9.64
2023-04-04T13:43:28.111Z,8.81
2023-04-04T13:47:33.302Z,8.95
2023-04-04T13:51:37.649Z,9.39
2023-04-04T13:55:52.016Z,9.69
2023-04-04T14:00:05.860Z,9.82
2023-04-04T14:04:20.661Z,9.83
2023-04-04T14:08:26.321Z,9.79
2023-04-04T14:12:29.062Z,9.77
2023-04-04T14:16:32.043Z,9.56
2023-04-04T14:20:37.702Z,9.54
2023-04-04T14:24:41.552Z,9.59
2023-04-04T14:28:44.612Z,9.85
2023-04-04T14:32:48.855Z,10.02
2023-04-04T14:36:51.327Z,10.27
2023-04-04T14:40:55.288Z,10.23
2023-04-04T14:44:58.678Z,10.26
2023-04-04T14:49:04.294Z,10.40
2023-04-04T14:53:09.543Z,10.42
2023-04-04T14:57:15.402Z,10.52
2023-04-04T15:01:21.553Z,10.38
2023-04-04T15:05:25.689Z,10.37
2023-04-04T15:09:34.887Z,10.32
2023-04-04T15:13:40.679Z,9.76
2023-04-04T15:17:46.432Z,10.01
2023-04-04T15:21:51.493Z,10.01
2023-04-04T15:25:58.696Z,9.87
2023-04-04T15:30:04.208Z,10.08
2023-04-04T15:34:07.583Z,10.11
2023-04-04T15:38:13.614Z,9.67
2023-04-04T15:42:20.840Z,9.56
2023-04-04T15:46:23.471Z,9.14
2023-04-04T15:50:26.274Z,9.17
2023-04-04T15:54:31.736Z,9.48
2023-04-04T15:58:36.986Z,10.14
2023-04-04T16:02:39.840Z,11.51
2023-04-04T16:06:44.222Z,10.85
2023-04-04T16:10:47.320Z,11.70
2023-04-04T16:14:50.186Z,10.50
2023-04-04T16:18:54.375Z,11.38
2023-04-04T16:22:56.897Z,10.53
2023-04-04T16:27:02.436Z,10.43
2023-04-04T16:31:06.835Z,10.88
2023-04-04T16:35:10.320Z,10.54
2023-04-04T16:39:15.421Z,11.36
2023-04-04T16:43:21.375Z,10.76
2023-04-04T16:47:26.129Z,10.20
2023-04-04T16:51:30.878Z,10.55
2023-04-04T16:55:35.131Z,10.58
2023-04-04T16:59:37.933Z,10.51
2023-04-04T17:03:43.083Z,9.82
2023-04-04T17:07:45.707Z,9.22
2023-04-04T17:11:50.940Z,8.51
2023-04-04T17:15:54.585Z,8.52
2023-04-04T17:19:58.434Z,8.04
2023-04-04T17:24:04.740Z,7.84
2023-04-04T17:28:07.622Z,7.46
2023-04-04T17:32:10.572Z,7.29
2023-04-04T17:36:17.575Z,6.97
2023-04-04T17:40:22.469Z,6.61
2023-04-04T17:44:24.962Z,6.10
2023-04-04T17:48:32.331Z,5.86
2023-04-04T17:52:35.061Z,5.74
2023-04-04T17:56:38.485Z,5.62
2023-04-04T18:00:42.780Z,5.45
2023-04-04T18:04:47.536Z,5.33
2023-04-04T18:08:52.248Z,5.29
2023-04-04T18:12:55.630Z,5.20
2023-04-04T18:16:58.698Z,5.13
2023-04-04T18:21:02.098Z,5.01
2023-04-04T18:25:04.755Z,4.90
2023-04-04T18:29:08.897Z,4.81
2023-04-04T18:33:12.276Z,4.73
2023-04-04T18:37:15.747Z,4.64
2023-04-04T18:41:18.252Z,4.53
2023-04-04T18:45:29.924Z,4.47
2023-04-04T18:49:37.198Z,4.44
2023-04-04T18:53:45.013Z,4.48
2023-04-04T18:57:50.860Z,4.52
2023-04-04T19:01:57.214Z,4.49
2023-04-04T19:06:08.058Z,4.43
2023-04-04T19:10:14.351Z,4.46
2023-04-04T19:14:17.182Z,4.36
2023-04-04T19:18:31.676Z,4.33
2023-04-04T19:22:37.662Z,4.32
2023-04-04T19:26:55.325Z,4.33
2023-04-04T19:31:02.580Z,4.30
2023-04-04T19:39:46.883Z,4.34
2023-04-04T19:43:50.923Z,4.31
2023-04-04T19:47:54.832Z,4.29
2023-04-04T19:51:59.740Z,4.32
2023-04-04T19:56:08.707Z,4.33
2023-04-04T20:00:16.637Z,4.32
2023-04-04T20:04:20.295Z,4.30
2023-04-04T20:08:24.110Z,4.34
2023-04-04T20:12:33.560Z,4.31
2023-04-04T20:16:39.062Z,4.29
2023-04-04T20:21:12.110Z,4.26
2023-04-04T20:25:40.830Z,4.33
2023-04-04T20:34:46.783Z,4.43
2023-04-04T20:38:52.738Z,4.44
2023-04-04T20:43:22.191Z,4.56
2023-04-04T20:47:46.934Z,4.58
2023-04-04T20:51:51.886Z,4.57
2023-04-04T20:56:02.246Z,4.52
2023-04-04T21:00:25.565Z,4.53
2023-04-04T21:04:37.760Z,4.51
2023-04-04T21:08:53.568Z,4.58
2023-04-04T21:13:13.154Z,4.53
2023-04-04T21:17:29.957Z,4.56
2023-04-04T21:21:40.577Z,4.56
2023-04-04T21:25:46.348Z,4.52
2023-04-04T21:29:54.913Z,4.53
2023-04-04T21:34:18.845Z,4.57
2023-04-04T21:38:34.401Z,4.46
2023-04-04T21:42:38.948Z,4.61
2023-04-04T21:46:42.062Z,4.62
2023-04-04T21:50:45.101Z,4.66
2023-04-04T21:54:47.619Z,4.77
2023-04-04T21:58:50.091Z,4.75
2023-04-04T22:02:52.506Z,4.78
2023-04-04T22:06:55.187Z,4.73
2023-04-04T22:11:02.034Z,4.72
2023-04-04T22:15:05.230Z,4.82
2023-04-04T22:19:07.821Z,4.80
2023-04-04T22:23:11.542Z,4.80
2023-04-04T22:27:14.883Z,4.86
2023-04-04T22:31:17.230Z,4.85
2023-04-04T22:35:26.521Z,4.83
2023-04-04T22:39:30.927Z,4.83
2023-04-04T22:43:39.535Z,4.83
2023-04-04T22:47:47.649Z,4.89
2023-04-04T22:51:49.870Z,4.87
2023-04-04T22:55:54.257Z,4.96
2023-04-04T22:59:59.913Z,4.88
2023-04-04T23:04:11.526Z,4.89
2023-04-04T23:08:18.816Z,4.92
2023-04-04T23:12:25.992Z,4.95
2023-04-04T23:16:36.835Z,4.92
2023-04-04T23:20:43.022Z,4.91
2023-04-04T23:24:46.177Z,4.93
2023-04-04T23:28:51.512Z,4.91
2023-04-04T23:32:56.353Z,4.89
2023-04-04T23:37:07.599Z,4.89
2023-04-04T23:41:11.462Z,4.91
2023-04-04T23:45:14.412Z,4.90
2023-04-04T23:49:17.196Z,4.92
2023-04-04T23:53:19.635Z,4.93
2023-04-04T23:57:22.054Z,4.89
